Time;durP1;ratioP1;P1;durP2;ratioP2;P2;SDS_P1;SDS_P2;PMS_P1;PMS_P2;Temp;Humidity;BMP_temperature;BMP_pressure;BME280_temperature;BME280_humidity;BME280_pressure;Samples;Min_cycle;Max_cycle;Signal;HPM_P1;HPM_P2
2022/06/21 00:00:48;;;;;;;40.47;38.45;;;;;;;23.72;35.84;101604.13;4973462;28;20042;-66
2022/06/21 00:03:18;;;;;;;41.63;39.42;;;;;;;23.70;36.28;101602.78;4956782;28;20415;-68
2022/06/21 00:05:48;;;;;;;39.78;37.35;;;;;;;23.66;36.30;101601.75;4977691;28;20031;-69
2022/06/21 00:08:24;;;;;;;40.58;38.55;;;;;;;23.65;35.96;101605.66;4977240;28;20338;-68
2022/06/21 00:10:51;;;;;;;41.10;38.55;;;;;;;23.62;36.36;101598.00;4977932;28;20422;-68
2022/06/21 00:13:31;;;;;;;42.30;38.70;;;;;;;23.58;36.18;101591.47;4977364;28;20037;-68
2022/06/21 00:16:00;;;;;;;39.92;37.83;;;;;;;23.55;36.14;101596.47;4977669;28;20033;-68
2022/06/21 00:18:28;;;;;;;41.50;39.20;;;;;;;23.52;36.47;101596.28;4977098;28;20033;-68
2022/06/21 00:20:54;;;;;;;41.25;38.95;;;;;;;23.49;36.43;101594.16;4978001;28;20034;-68
2022/06/21 00:23:25;;;;;;;42.17;39.72;;;;;;;23.46;36.25;101597.50;4977020;28;20078;-68
2022/06/21 00:25:51;;;;;;;42.67;40.45;;;;;;;23.43;36.51;101596.19;4976978;28;20039;-68
2022/06/21 00:28:18;;;;;;;42.30;40.03;;;;;;;23.40;36.47;101593.22;4977074;28;20031;-67
2022/06/21 00:30:46;;;;;;;41.35;39.03;;;;;;;23.37;36.06;101588.34;4975540;28;20117;-67
2022/06/21 00:33:14;;;;;;;40.20;38.08;;;;;;;23.35;36.06;101596.09;4976678;28;20038;-68
2022/06/21 00:35:46;;;;;;;39.60;37.47;;;;;;;23.32;36.47;101589.25;4976960;28;20027;-68
2022/06/21 00:38:18;;;;;;;42.22;39.58;;;;;;;23.28;36.26;101591.00;4959696;28;20086;-68
2022/06/21 00:40:44;;;;;;;39.58;37.67;;;;;;;23.24;36.21;101593.56;4960340;28;20027;-68
2022/06/21 00:43:16;;;;;;;39.53;37.22;;;;;;;23.21;36.59;101588.66;4977284;28;20023;-68
2022/06/21 00:45:45;;;;;;;40.17;38.17;;;;;;;23.18;36.62;101575.47;4977738;28;20026;-67
2022/06/21 00:48:27;;;;;;;39.83;37.45;;;;;;;23.16;36.17;101571.41;4977111;28;20080;-70
2022/06/21 00:51:14;;;;;;;38.80;36.83;;;;;;;23.11;36.35;101566.84;4977877;28;20023;-69
2022/06/21 00:53:47;;;;;;;38.53;36.28;;;;;;;23.08;36.60;101573.78;4977248;28;20031;-69
2022/06/21 00:56:19;;;;;;;36.78;34.78;;;;;;;23.05;36.35;101574.38;4977549;28;20109;-68
2022/06/21 00:58:44;;;;;;;39.05;36.70;;;;;;;23.01;36.73;101567.84;4977339;28;20081;-68
2022/06/21 01:01:13;;;;;;;39.00;37.00;;;;;;;22.99;36.57;101559.09;4975721;28;20035;-68
2022/06/21 01:03:41;;;;;;;38.78;36.50;;;;;;;22.97;36.62;101554.97;4976613;28;20439;-68
2022/06/21 01:06:26;;;;;;;39.75;37.40;;;;;;;22.94;36.65;101555.59;4976799;28;20070;-69
2022/06/21 01:08:57;;;;;;;38.05;36.05;;;;;;;22.90;36.46;101544.34;4977041;28;20023;-69
2022/06/21 01:11:27;;;;;;;37.85;35.55;;;;;;;22.86;36.88;101549.66;4977240;28;20034;-69
2022/06/21 01:13:56;;;;;;;38.17;36.00;;;;;;;22.84;36.42;101543.66;4977358;28;20026;-68
2022/06/21 01:16:25;;;;;;;41.50;38.53;;;;;;;22.80;36.57;101550.06;4959181;28;20563;-67
2022/06/21 01:18:50;;;;;;;36.50;34.70;;;;;;;22.78;36.84;101546.78;4976503;28;20345;-68
2022/06/21 01:21:18;;;;;;;38.72;36.47;;;;;;;22.75;36.60;101550.97;4977091;28;20057;-69
2022/06/21 01:24:07;;;;;;;36.50;34.40;;;;;;;22.72;36.48;101551.59;4976463;28;20041;-69
2022/06/21 01:27:03;;;;;;;37.75;35.58;;;;;;;22.70;36.71;101556.59;4976676;28;20027;-69
2022/06/21 01:29:31;;;;;;;35.85;33.85;;;;;;;22.66;37.07;101561.09;4963878;28;20050;-68
2022/06/21 01:32:00;;;;;;;36.65;34.45;;;;;;;22.63;36.66;101550.69;4976269;28;20019;-69
2022/06/21 01:34:27;;;;;;;36.67;34.58;;;;;;;22.59;36.74;101547.72;4975949;28;20027;-70
2022/06/21 01:36:58;;;;;;;35.63;33.55;;;;;;;22.58;37.23;101550.75;4976248;28;20077;-68
2022/06/21 01:39:29;;;;;;;37.38;35.05;;;;;;;22.55;37.09;101545.88;4976495;28;20026;-69
2022/06/21 01:42:03;;;;;;;35.50;33.53;;;;;;;22.53;37.12;101548.09;4976680;28;20522;-68
2022/06/21 01:44:35;;;;;;;37.67;35.65;;;;;;;22.50;37.15;101556.97;4975938;28;20192;-69
2022/06/21 01:47:05;;;;;;;35.88;33.97;;;;;;;22.45;37.24;101555.13;4976233;28;20061;-67
2022/06/21 01:49:34;;;;;;;35.95;34.00;;;;;;;22.43;36.85;101549.94;4975961;28;20110;-68
2022/06/21 01:52:11;;;;;;;36.45;34.65;;;;;;;22.41;37.25;101552.19;4975921;28;20535;-68
2022/06/21 01:54:42;;;;;;;37.15;34.92;;;;;;;22.38;37.25;101560.22;4975601;28;20049;-67
2022/06/21 01:57:09;;;;;;;35.13;33.13;;;;;;;22.36;37.07;101556.97;4975850;28;20470;-67
2022/06/21 01:59:41;;;;;;;37.28;35.28;;;;;;;22.33;37.09;101558.38;4975775;28;20022;-68
2022/06/21 02:02:11;;;;;;;35.40;33.25;;;;;;;22.30;37.35;101555.41;4975714;28;20044;-67
2022/06/21 02:04:43;;;;;;;36.75;34.50;;;;;;;22.27;37.17;101559.56;4976089;28;20043;-68
2022/06/21 02:07:14;;;;;;;35.53;33.20;;;;;;;22.24;37.17;101552.75;4976457;28;20133;-68
2022/06/21 02:09:48;;;;;;;36.28;34.00;;;;;;;22.22;37.05;101554.16;4976115;28;20056;-68
2022/06/21 02:12:14;;;;;;;36.47;34.38;;;;;;;22.19;37.34;101551.97;4975678;28;20363;-68
2022/06/21 02:14:50;;;;;;;35.30;33.38;;;;;;;22.17;37.54;101540.47;4975536;28;20035;-68
2022/06/21 02:17:23;;;;;;;34.50;32.53;;;;;;;22.13;37.13;101539.44;4975572;28;20118;-68
2022/06/21 02:19:56;;;;;;;33.67;31.95;;;;;;;22.09;37.36;101527.41;4975464;28;20027;-68
2022/06/21 02:22:25;;;;;;;33.95;32.05;;;;;;;22.08;37.30;101528.53;4975759;28;20023;-67
2022/06/21 02:24:52;;;;;;;36.13;34.05;;;;;;;22.04;36.98;101537.34;4958295;28;20030;-67
2022/06/21 02:27:21;;;;;;;34.88;32.42;;;;;;;22.01;37.35;101526.97;4975607;28;20110;-67
2022/06/21 02:29:51;;;;;;;32.78;30.75;;;;;;;21.99;37.36;101517.38;4975228;28;20444;-68
2022/06/21 02:32:27;;;;;;;34.63;32.08;;;;;;;21.96;37.51;101506.97;4958399;28;20035;-68
2022/06/21 02:35:15;;;;;;;32.40;30.73;;;;;;;21.92;37.24;101516.94;4975216;28;20542;-67
2022/06/21 02:37:42;;;;;;;35.78;33.72;;;;;;;21.89;37.13;101514.81;4975191;28;20462;-67
2022/06/21 02:40:15;;;;;;;34.78;32.83;;;;;;;21.86;37.36;101510.72;4975174;28;20352;-68
2022/06/21 02:42:43;;;;;;;35.50;33.50;;;;;;;21.83;37.28;101503.88;4975172;28;20110;-68
2022/06/21 02:45:17;;;;;;;34.78;32.53;;;;;;;21.80;37.43;101504.50;4975714;28;20065;-68
2022/06/21 02:47:45;;;;;;;34.85;33.05;;;;;;;21.77;37.48;101493.25;4974943;28;20465;-67
2022/06/21 02:50:24;;;;;;;34.45;32.47;;;;;;;21.75;37.66;101512.00;4974911;28;20019;-68
2022/06/21 02:52:51;;;;;;;34.25;32.53;;;;;;;21.72;37.36;101512.59;4975238;28;20031;-67
2022/06/21 02:55:35;;;;;;;34.15;32.45;;;;;;;21.70;37.24;101515.66;4975194;28;20046;-66
2022/06/21 02:58:06;;;;;;;34.13;32.33;;;;;;;21.67;37.67;101519.00;4974639;28;20519;-67
2022/06/21 03:00:32;;;;;;;33.92;32.05;;;;;;;21.64;37.54;101516.03;4974838;28;20451;-66
2022/06/21 03:03:00;;;;;;;35.40;33.42;;;;;;;21.62;37.35;101513.59;4974635;28;20035;-66
2022/06/21 03:05:27;;;;;;;33.80;31.90;;;;;;;21.58;37.46;101518.84;4974725;28;20034;-67
2022/06/21 03:07:57;;;;;;;33.40;31.70;;;;;;;21.55;37.44;101513.97;4974749;28;20129;-67
2022/06/21 03:10:38;;;;;;;34.53;32.72;;;;;;;21.52;37.21;101517.31;4974660;28;20077;-67
2022/06/21 03:13:16;;;;;;;34.58;32.47;;;;;;;21.49;37.55;101511.56;4974782;28;20030;-67
2022/06/21 03:15:44;;;;;;;36.08;33.72;;;;;;;21.47;37.32;101511.03;4974692;28;20057;-67
2022/06/21 03:18:15;;;;;;;32.55;30.95;;;;;;;21.44;37.46;101519.88;4975237;28;20066;-67
2022/06/21 03:20:41;;;;;;;34.10;32.20;;;;;;;21.42;37.50;101522.13;4975236;28;20078;-67
2022/06/21 03:23:07;;;;;;;32.20;30.55;;;;;;;21.39;37.30;101509.78;4974868;28;20034;-67
2022/06/21 03:25:58;;;;;;;35.08;33.03;;;;;;;21.36;37.86;101502.91;4974411;28;20524;-66
2022/06/21 03:28:37;;;;;;;33.92;31.88;;;;;;;21.34;37.63;101501.59;4974646;28;20457;-67
2022/06/21 03:31:32;;;;;;;33.35;31.42;;;;;;;21.31;37.87;101499.44;4974855;28;20030;-68
2022/06/21 03:34:03;;;;;;;34.50;32.22;;;;;;;21.29;37.98;101476.94;4973125;28;20035;-67
2022/06/21 03:36:29;;;;;;;34.08;32.22;;;;;;;21.26;37.53;101475.59;4974297;28;20122;-68
2022/06/21 03:38:59;;;;;;;34.05;32.03;;;;;;;21.24;37.99;101466.00;4976126;28;20033;-68
2022/06/21 03:41:43;;;;;;;34.78;32.58;;;;;;;21.21;37.92;101477.59;4978334;28;20027;-68
2022/06/21 03:44:41;;;;;;;32.85;31.05;;;;;;;21.18;38.02;101488.06;4978292;28;20055;-67
2022/06/21 03:47:12;;;;;;;31.42;29.73;;;;;;;21.15;37.90;101485.09;4958034;28;20039;-67
2022/06/21 03:50:03;;;;;;;32.50;30.65;;;;;;;21.12;37.73;101483.75;4978135;28;20027;-68
2022/06/21 03:52:55;;;;;;;33.35;31.10;;;;;;;21.09;37.80;101480.78;4977880;28;20412;-68
2022/06/21 03:55:27;;;;;;;32.65;30.75;;;;;;;21.05;37.88;101477.00;4978461;28;20029;-69
2022/06/21 03:58:12;;;;;;;33.85;32.05;;;;;;;21.03;38.13;101488.28;4978298;28;20117;-68
2022/06/21 04:00:46;;;;;;;34.67;32.42;;;;;;;21.00;38.07;101483.38;4978236;28;20033;-68
2022/06/21 04:03:22;;;;;;;33.33;31.35;;;;;;;20.97;38.46;101492.22;4977658;28;20070;-67
2022/06/21 04:05:54;;;;;;;34.22;32.13;;;;;;;20.95;38.18;101488.94;4978029;28;20030;-67
2022/06/21 04:08:26;;;;;;;33.63;31.50;;;;;;;20.93;38.24;101491.16;4960539;28;20031;-67
2022/06/21 04:11:00;;;;;;;34.92;32.78;;;;;;;20.90;38.45;101491.75;4977837;28;20057;-68
2022/06/21 04:14:05;;;;;;;33.35;31.30;;;;;;;20.88;38.08;101481.03;4978304;28;20030;-67
2022/06/21 04:16:40;;;;;;;32.78;30.88;;;;;;;20.85;37.98;101473.41;4918213;29;20036;-67
2022/06/21 04:19:23;;;;;;;32.45;30.50;;;;;;;20.82;38.37;101479.50;4971296;28;20103;-67
2022/06/21 04:21:56;;;;;;;33.63;31.58;;;;;;;20.80;38.50;101472.66;4978156;28;20050;-68
2022/06/21 04:24:49;;;;;;;32.17;30.48;;;;;;;20.77;38.20;101473.25;4977621;28;20534;-68
2022/06/21 04:27:41;;;;;;;32.97;31.20;;;;;;;20.72;38.65;101463.97;4978092;28;20034;-67
2022/06/21 04:30:26;;;;;;;33.83;31.35;;;;;;;20.68;38.51;101462.91;4977715;28;20423;-68
2022/06/21 04:33:08;;;;;;;34.45;32.08;;;;;;;20.64;38.95;101464.63;4977656;28;20058;-68
2022/06/21 04:35:43;;;;;;;33.00;31.10;;;;;;;20.60;38.79;101463.56;4978234;28;20343;-68
2022/06/21 04:38:25;;;;;;;32.50;30.55;;;;;;;20.59;38.78;101466.56;4977895;28;20027;-68
2022/06/21 04:41:02;;;;;;;32.45;30.65;;;;;;;20.57;38.67;101471.56;4977609;28;20031;-68
2022/06/21 04:43:45;;;;;;;34.10;31.50;;;;;;;20.54;38.70;101461.97;4977001;28;20470;-66
2022/06/21 04:46:20;;;;;;;32.60;30.40;;;;;;;20.52;39.03;101464.97;4977160;28;20468;-67
2022/06/21 04:48:57;;;;;;;34.00;32.00;;;;;;;20.49;38.93;101467.50;4977009;28;20030;-68
2022/06/21 04:51:32;;;;;;;31.05;29.35;;;;;;;20.45;39.17;101467.25;4960742;28;20474;-67
2022/06/21 04:54:05;;;;;;;33.30;30.70;;;;;;;20.44;39.12;101462.88;4976648;28;20094;-68
2022/06/21 04:57:00;;;;;;;31.95;30.05;;;;;;;20.41;39.41;101462.63;4977580;28;20354;-67
2022/06/21 04:59:58;;;;;;;31.88;30.08;;;;;;;20.37;39.21;101467.91;4969106;28;20042;-69
2022/06/21 05:02:27;;;;;;;31.20;29.50;;;;;;;20.35;38.99;101458.31;4965214;28;20038;-66
2022/06/21 05:04:58;;;;;;;31.95;30.10;;;;;;;20.35;39.17;101464.63;4977301;28;20046;-68
2022/06/21 05:07:27;;;;;;;30.40;28.60;;;;;;;20.33;39.08;101469.59;4977360;28;20031;-69
2022/06/21 05:09:55;;;;;;;32.88;30.98;;;;;;;20.32;39.31;101460.53;4977259;28;20030;-66
2022/06/21 05:12:29;;;;;;;31.52;29.35;;;;;;;20.32;38.89;101459.72;4976666;28;20026;-66
2022/06/21 05:15:18;;;;;;;33.05;31.02;;;;;;;20.32;39.20;101462.47;4959926;28;20161;-67
2022/06/21 05:17:49;;;;;;;31.23;29.42;;;;;;;20.30;39.13;101470.16;4976615;28;20031;-67
2022/06/21 05:20:19;;;;;;;31.17;29.25;;;;;;;20.29;39.57;101463.06;4977412;28;20023;-67
2022/06/21 05:22:50;;;;;;;32.03;30.05;;;;;;;20.29;39.26;101465.81;4976061;28;20425;-67
2022/06/21 05:25:19;;;;;;;31.17;29.20;;;;;;;20.28;39.81;101470.44;4976463;28;20030;-68
2022/06/21 05:27:51;;;;;;;31.80;29.77;;;;;;;20.29;39.39;101469.34;4976634;28;20035;-69
2022/06/21 05:30:41;;;;;;;30.60;29.00;;;;;;;20.29;39.67;101474.03;4976454;28;20080;-67
2022/06/21 05:33:41;;;;;;;30.95;29.25;;;;;;;20.30;39.41;101472.91;4977189;28;20035;-68
2022/06/21 05:36:11;;;;;;;31.27;29.30;;;;;;;20.29;39.57;101471.28;4965653;28;20467;-67
2022/06/21 05:38:51;;;;;;;31.75;29.67;;;;;;;20.30;39.54;101468.25;4976447;28;20023;-67
2022/06/21 05:41:31;;;;;;;30.92;29.13;;;;;;;20.31;39.85;101469.09;4975907;28;20345;-69
2022/06/21 05:44:14;;;;;;;31.23;29.17;;;;;;;20.30;39.59;101476.47;4976122;28;20023;-67
2022/06/21 05:46:46;;;;;;;31.55;29.52;;;;;;;20.32;39.71;101482.50;4976380;28;20039;-67
2022/06/21 05:49:23;;;;;;;30.38;28.58;;;;;;;20.32;39.76;101492.66;4976047;28;20486;-68
2022/06/21 05:51:50;;;;;;;30.80;29.10;;;;;;;20.31;39.56;101491.84;4976028;28;20513;-67
2022/06/21 05:54:20;;;;;;;32.03;29.85;;;;;;;20.33;39.58;101483.31;4975898;28;20522;-67
2022/06/21 05:56:46;;;;;;;30.60;28.85;;;;;;;20.35;39.78;101488.50;4975976;28;20019;-66
2022/06/21 05:59:15;;;;;;;31.77;29.95;;;;;;;20.36;39.75;101495.63;4975849;28;20042;-67
2022/06/21 06:01:51;;;;;;;31.08;29.02;;;;;;;20.35;40.00;101499.50;4975608;28;20046;-69
2022/06/21 06:04:33;;;;;;;31.20;29.23;;;;;;;20.36;39.58;101493.72;4958260;28;20139;-68
2022/06/21 06:07:01;;;;;;;30.42;28.83;;;;;;;20.38;39.57;101499.72;4975671;28;20101;-67
2022/06/21 06:09:36;;;;;;;29.40;27.47;;;;;;;20.40;39.91;101499.44;4975626;28;20432;-68
2022/06/21 06:12:04;;;;;;;32.40;30.33;;;;;;;20.42;40.06;101502.72;4975749;28;20365;-67
2022/06/21 06:14:41;;;;;;;31.30;29.40;;;;;;;20.41;40.13;101501.06;4976098;28;20370;-67
2022/06/21 06:17:15;;;;;;;30.17;28.48;;;;;;;20.42;40.00;101520.00;4975470;28;20463;-67
2022/06/21 06:20:00;;;;;;;30.67;29.08;;;;;;;20.45;40.02;101505.69;4975095;28;20370;-68
2022/06/21 06:22:49;;;;;;;30.67;28.98;;;;;;;20.46;40.04;101510.06;4975765;28;20107;-68
2022/06/21 06:25:17;;;;;;;29.65;28.05;;;;;;;20.50;39.96;101511.09;4966978;28;20113;-67
2022/06/21 06:28:00;;;;;;;30.58;28.77;;;;;;;20.51;40.15;101511.91;4975329;28;20154;-67
2022/06/21 06:30:39;;;;;;;29.85;28.35;;;;;;;20.51;40.26;101507.28;4975225;28;20026;-67
2022/06/21 06:33:22;;;;;;;30.50;28.90;;;;;;;20.54;40.01;101533.31;4957992;28;20027;-68
2022/06/21 06:35:49;;;;;;;31.08;28.88;;;;;;;20.56;39.91;101528.38;4975266;28;20031;-66
2022/06/21 06:38:16;;;;;;;31.08;29.27;;;;;;;20.59;40.23;101521.47;4975404;28;20037;-68
2022/06/21 06:41:02;;;;;;;30.77;29.17;;;;;;;20.62;40.00;101521.72;4974882;28;20039;-68
2022/06/21 06:43:37;;;;;;;29.27;27.75;;;;;;;20.66;39.87;101527.44;4975140;28;20041;-68
2022/06/21 06:46:04;;;;;;;32.70;30.58;;;;;;;20.69;40.25;101541.41;4974977;28;20027;-68
2022/06/21 06:48:33;;;;;;;30.88;29.05;;;;;;;20.71;39.98;101533.72;4974858;28;20041;-69
2022/06/21 06:51:33;;;;;;;32.20;30.25;;;;;;;20.77;40.28;101536.41;4975307;28;20065;-70
2022/06/21 06:54:01;;;;;;;31.42;29.73;;;;;;;20.80;39.91;101530.31;4974944;28;20034;-68
2022/06/21 06:56:33;;;;;;;30.60;28.95;;;;;;;20.83;40.29;101529.72;4974892;28;20026;-69
2022/06/21 06:59:14;;;;;;;31.63;30.02;;;;;;;20.88;40.11;101535.16;4974178;28;20360;-68
2022/06/21 07:01:57;;;;;;;31.08;29.38;;;;;;;20.92;40.08;101545.28;4975351;28;20031;-66
2022/06/21 07:04:23;;;;;;;31.75;30.00;;;;;;;20.95;40.12;101538.38;4975596;28;20100;-67
2022/06/21 07:06:53;;;;;;;31.38;29.67;;;;;;;20.99;40.06;101535.84;4974748;28;20125;-67
2022/06/21 07:09:25;;;;;;;33.05;30.85;;;;;;;21.02;40.45;101530.59;4975499;28;20038;-68
2022/06/21 07:11:53;;;;;;;32.10;30.00;;;;;;;21.02;40.38;101522.34;4957905;28;20031;-65
2022/06/21 07:14:23;;;;;;;31.55;29.45;;;;;;;21.05;40.32;101524.50;4974569;28;20480;-66
2022/06/21 07:17:00;;;;;;;31.02;29.20;;;;;;;21.08;40.50;101514.88;4974640;28;20026;-69
2022/06/21 07:19:25;;;;;;;33.42;30.98;;;;;;;21.10;40.40;101510.72;4975359;28;20027;-67
2022/06/21 07:21:50;;;;;;;33.00;31.00;;;;;;;21.13;40.41;101506.56;4974605;28;20042;-67
2022/06/21 07:24:18;;;;;;;34.08;32.17;;;;;;;21.16;40.55;101512.25;4974721;28;20039;-65
2022/06/21 07:26:51;;;;;;;32.45;30.55;;;;;;;21.20;40.55;101528.19;4974763;28;20037;-65
2022/06/21 07:29:17;;;;;;;32.05;30.45;;;;;;;21.23;40.33;101516.59;4975017;28;20031;-67
2022/06/21 07:31:51;;;;;;;33.10;31.00;;;;;;;21.27;40.78;101520.38;4974715;28;20466;-67
2022/06/21 07:34:23;;;;;;;32.55;30.63;;;;;;;21.32;40.34;101515.63;4974378;28;20468;-68
2022/06/21 07:36:56;;;;;;;34.42;32.63;;;;;;;21.35;40.44;101514.22;4974475;28;20035;-65
2022/06/21 07:39:45;;;;;;;33.47;31.58;;;;;;;21.39;40.65;101509.78;4974461;28;20471;-67
2022/06/21 07:42:27;;;;;;;33.33;31.33;;;;;;;21.43;40.80;101516.34;4974057;28;20051;-67
2022/06/21 07:45:00;;;;;;;32.78;30.77;;;;;;;21.47;40.33;101511.88;4974858;28;20031;-67
2022/06/21 07:47:46;;;;;;;35.22;32.95;;;;;;;21.52;40.71;101502.72;4974398;28;20054;-65
2022/06/21 07:50:22;;;;;;;33.65;31.85;;;;;;;21.56;40.97;101496.34;4974803;28;20030;-72
2022/06/21 07:52:55;;;;;;;34.70;32.75;;;;;;;21.62;40.71;101494.34;4957363;28;20027;-64
2022/06/21 07:55:31;;;;;;;34.75;32.60;;;;;;;21.66;40.46;101494.56;4974866;28;20072;-70
2022/06/21 07:58:05;;;;;;;34.47;32.67;;;;;;;21.67;40.35;101498.91;4974803;28;20038;-68
2022/06/21 08:06:41;;;;;;;34.60;32.58;;;;;;;21.70;40.44;101503.84;4974749;28;20038;-68
2022/06/21 08:09:36;;;;;;;32.70;31.08;;;;;;;21.85;40.77;101500.00;4974133;28;20054;-67
2022/06/21 08:12:02;;;;;;;36.83;34.25;;;;;;;21.90;40.19;101495.25;4970430;28;20534;-69
2022/06/21 08:14:33;;;;;;;38.70;36.25;;;;;;;21.95;40.72;101486.91;4973944;28;20043;-69
2022/06/21 08:17:09;;;;;;;33.72;31.98;;;;;;;22.01;40.79;101487.63;4974209;28;20035;-66
2022/06/21 08:19:49;;;;;;;34.83;32.83;;;;;;;22.08;40.41;101487.25;4974561;28;20113;-67
2022/06/21 08:22:27;;;;;;;37.10;34.90;;;;;;;22.16;40.50;101487.38;4974847;28;20035;-69
2022/06/21 08:24:57;;;;;;;;;;;;;;;22.20;40.42;101476.59;4975842;28;20170;-69
2022/06/21 08:27:44;;;;;;;34.97;33.08;;;;;;;22.27;40.67;101479.75;4977451;28;20367;-67
2022/06/21 08:30:17;;;;;;;35.03;32.90;;;;;;;22.34;40.25;101462.84;4977913;28;20035;-68
2022/06/21 08:33:00;;;;;;;36.45;34.40;;;;;;;22.40;40.49;101453.38;4977747;28;20371;-68
2022/06/21 08:35:47;;;;;;;36.47;34.33;;;;;;;22.44;39.98;101460.72;4976920;28;20039;-68
2022/06/21 08:38:12;;;;;;;37.50;35.40;;;;;;;22.51;39.74;101448.50;4960208;28;20027;-68
2022/06/21 08:40:59;;;;;;;37.30;35.30;;;;;;;22.59;40.00;101453.28;4977240;28;20046;-68
2022/06/21 08:43:59;;;;;;;37.55;35.15;;;;;;;22.64;39.68;101445.72;4977593;28;20037;-68
2022/06/21 08:46:59;;;;;;;37.58;35.67;;;;;;;22.71;39.65;101437.06;4976825;28;20038;-68
2022/06/21 08:49:52;;;;;;;38.10;35.63;;;;;;;22.77;39.25;101427.56;4977440;28;20077;-70
2022/06/21 08:52:32;;;;;;;39.08;37.00;;;;;;;22.82;38.78;101429.38;4977314;28;20027;-68
2022/06/21 08:55:19;;;;;;;38.20;36.30;;;;;;;22.87;39.39;101426.50;4977939;28;20057;-68
2022/06/21 08:57:51;;;;;;;38.70;36.50;;;;;;;22.92;39.66;101406.31;4977211;28;20125;-68
2022/06/21 09:00:33;;;;;;;40.83;38.65;;;;;;;23.01;39.40;101413.56;4977192;28;20026;-70
2022/06/21 09:03:26;;;;;;;38.45;35.95;;;;;;;23.07;39.44;101417.81;4976913;28;20038;-68
2022/06/21 09:06:15;;;;;;;39.08;36.88;;;;;;;23.16;39.50;101409.66;4977301;28;20035;-68
2022/06/21 09:08:49;;;;;;;38.60;36.60;;;;;;;23.23;39.45;101409.19;4967497;28;20077;-69
2022/06/21 09:11:45;;;;;;;39.40;37.15;;;;;;;23.32;39.45;101413.66;4976933;28;20119;-69
2022/06/21 09:14:13;;;;;;;40.10;37.83;;;;;;;23.40;39.33;101403.81;4950443;28;20039;-69
2022/06/21 09:16:55;;;;;;;40.20;38.10;;;;;;;23.49;39.21;101403.88;4976651;28;20035;-68
2022/06/21 09:19:47;;;;;;;39.15;37.25;;;;;;;23.57;39.14;101397.59;4977005;28;20138;-68
2022/06/21 09:22:29;;;;;;;41.72;39.40;;;;;;;23.65;38.68;101402.34;4976816;28;20039;-68
2022/06/21 09:25:08;;;;;;;40.42;38.22;;;;;;;23.70;38.84;101393.94;4976446;28;20489;-69
2022/06/21 09:27:36;;;;;;;;;;;;;;;23.76;39.48;101389.13;4975926;28;20034;-69
2022/06/21 09:30:10;;;;;;;41.60;39.20;;;;;;;23.82;38.64;101393.41;4976454;28;19917;-69
2022/06/21 09:33:02;;;;;;;43.22;39.83;;;;;;;23.89;38.18;101384.66;4976354;28;20034;-70
2022/06/21 09:35:43;;;;;;;41.80;39.65;;;;;;;23.95;38.53;101377.88;4976286;28;20034;-68
2022/06/21 09:38:39;;;;;;;42.25;39.45;;;;;;;24.03;38.78;101379.06;4975505;28;20066;-68
2022/06/21 09:41:27;;;;;;;41.17;38.95;;;;;;;24.10;38.34;101374.69;4976838;28;20038;-68
2022/06/21 09:44:21;;;;;;;40.67;38.58;;;;;;;24.16;38.90;101378.94;4976952;28;20105;-68
2022/06/21 09:47:14;;;;;;;40.92;38.83;;;;;;;24.25;38.37;101375.41;4976848;28;20081;-68
2022/06/21 09:49:55;;;;;;;42.33;39.45;;;;;;;24.33;38.27;101377.38;4976488;28;20156;-69
2022/06/21 09:52:39;;;;;;;43.35;41.05;;;;;;;24.37;38.40;101379.19;4975124;28;20117;-70
2022/06/21 09:55:19;;;;;;;42.33;40.03;;;;;;;24.43;36.33;101374.31;4976415;28;20045;-66
2022/06/21 09:57:54;;;;;;;42.88;40.58;;;;;;;24.45;36.09;101380.38;4975608;28;20113;-69
2022/06/21 10:00:41;;;;;;;43.55;41.00;;;;;;;24.48;36.67;101382.47;4976110;28;20059;-68
2022/06/21 10:03:35;;;;;;;41.67;39.35;;;;;;;24.53;37.19;101384.28;4975621;28;20141;-67
2022/06/21 10:06:25;;;;;;;42.42;40.22;;;;;;;24.60;37.04;101392.91;4975679;28;20038;-69
2022/06/21 10:09:22;;;;;;;43.17;40.97;;;;;;;24.68;37.35;101388.53;4975986;28;20045;-68
2022/06/21 10:12:19;;;;;;;42.17;39.88;;;;;;;24.76;37.30;101393.25;4975935;28;20035;-68
2022/06/21 10:14:51;;;;;;;43.72;41.33;;;;;;;24.82;37.51;101378.97;4975373;28;20386;-69
2022/06/21 10:17:46;;;;;;;47.80;45.10;;;;;;;24.91;36.55;101384.47;4975482;28;20093;-69
2022/06/21 10:20:27;;;;;;;45.03;42.53;;;;;;;24.96;37.01;101384.31;4975926;28;20045;-68
2022/06/21 10:23:31;;;;;;;47.78;45.28;;;;;;;25.02;36.99;101396.03;4975698;28;20077;-68
2022/06/21 10:26:10;;;;;;;44.03;41.83;;;;;;;25.07;36.87;101401.38;4975593;28;20030;-68
2022/06/21 10:28:45;;;;;;;44.35;42.22;;;;;;;25.13;37.12;101405.63;4975707;28;20034;-67
2022/06/21 10:31:25;;;;;;;44.95;42.47;;;;;;;25.19;37.26;101400.78;4975163;28;20039;-68
2022/06/21 10:34:27;;;;;;;45.03;42.63;;;;;;;25.27;36.79;101402.72;4975290;28;20035;-68
2022/06/21 10:37:01;;;;;;;47.33;44.72;;;;;;;25.30;36.48;101402.09;4975478;28;20070;-67
2022/06/21 10:39:45;;;;;;;47.92;45.30;;;;;;;25.35;36.80;101415.75;4975078;28;20038;-68
2022/06/21 10:42:47;;;;;;;48.33;45.83;;;;;;;25.41;36.50;101397.03;4975347;28;20034;-68
2022/06/21 10:45:32;;;;;;;46.35;43.33;;;;;;;25.44;36.72;101383.34;4975246;28;20038;-69
2022/06/21 10:48:35;;;;;;;46.88;44.10;;;;;;;25.51;36.39;101407.75;4974673;28;20510;-68
2022/06/21 10:51:17;;;;;;;45.67;43.25;;;;;;;25.55;36.16;101396.81;4975230;28;20026;-69
2022/06/21 10:54:10;;;;;;;49.60;47.13;;;;;;;25.61;36.46;101409.34;4974681;28;20034;-68
2022/06/21 11:02:56;;;;;;;46.17;43.42;;;;;;;25.72;36.11;101410.63;4975148;28;20037;-69
2022/06/21 11:05:40;;;;;;;47.95;45.15;;;;;;;25.76;36.25;101406.06;4975415;28;20046;-69
2022/06/21 11:08:17;;;;;;;47.05;44.65;;;;;;;25.79;36.39;101405.41;4975269;28;20035;-69
2022/06/21 11:10:54;;;;;;;45.67;43.47;;;;;;;25.82;36.13;101406.69;4974900;28;20035;-68
2022/06/21 11:13:22;;;;;;;48.20;45.45;;;;;;;25.85;36.19;101409.63;4974657;28;20723;-68
2022/06/21 11:15:47;;;;;;;48.17;45.42;;;;;;;25.88;36.00;101400.69;4975228;28;20061;-68
2022/06/21 11:18:12;;;;;;;47.38;45.08;;;;;;;25.90;35.87;101395.66;4974563;28;20062;-69
2022/06/21 11:20:48;;;;;;;47.83;45.53;;;;;;;25.93;36.37;101385.88;4974368;28;20031;-69
2022/06/21 11:23:47;;;;;;;49.47;46.78;;;;;;;25.97;36.12;101397.88;4974827;28;20072;-69
2022/06/21 11:26:25;;;;;;;48.75;46.05;;;;;;;25.99;36.34;101394.78;4974437;28;20030;-69
2022/06/21 11:29:15;;;;;;;47.45;44.50;;;;;;;26.02;35.91;101388.59;4974771;28;20038;-69
2022/06/21 11:31:43;;;;;;;45.75;43.50;;;;;;;26.03;36.14;101390.19;4974646;28;20042;-68
2022/06/21 11:34:30;;;;;;;47.15;44.65;;;;;;;26.06;36.08;101389.56;4974548;28;20038;-69
2022/06/21 11:37:17;;;;;;;47.13;44.80;;;;;;;26.07;36.02;101386.44;4974694;28;20026;-69
2022/06/21 11:40:01;;;;;;;45.90;43.53;;;;;;;26.09;35.66;101380.56;4974796;28;20058;-69
2022/06/21 11:42:36;;;;;;;46.25;43.83;;;;;;;26.14;35.42;101379.59;4974679;28;20059;-71
2022/06/21 11:45:16;;;;;;;50.75;47.70;;;;;;;26.14;35.32;101374.84;4974567;28;20106;-68
2022/06/21 11:48:25;;;;;;;51.47;48.55;;;;;;;26.17;35.82;101379.72;4974914;28;20027;-71
2022/06/21 11:51:11;;;;;;;48.20;45.63;;;;;;;26.19;35.36;101376.63;4974379;28;20077;-70
2022/06/21 11:53:52;;;;;;;49.30;46.92;;;;;;;26.20;35.75;101372.69;4974541;28;20034;-69
2022/06/21 11:56:40;;;;;;;47.80;45.50;;;;;;;26.22;35.50;101368.44;4973551;28;20042;-69
2022/06/21 11:59:23;;;;;;;50.63;47.83;;;;;;;26.24;34.75;101368.94;4974148;28;20035;-71
2022/06/21 12:01:59;;;;;;;48.75;46.35;;;;;;;26.23;34.41;101355.41;4978098;28;20027;-70
2022/06/21 12:04:54;;;;;;;48.80;46.20;;;;;;;26.21;34.98;101350.22;4977590;28;20105;-70
2022/06/21 12:07:24;;;;;;;47.40;44.97;;;;;;;26.21;35.10;101350.22;4977953;28;20054;-69